sensor_id;sensor_type;location;lat;lon;timestamp;temperature;humidity
13052;DHT22;6592;47.484;9.726;2022-09-01T00:00:44;14.70;99.90
13052;DHT22;6592;47.484;9.726;2022-09-01T00:03:15;14.70;99.90
13052;DHT22;6592;47.484;9.726;2022-09-01T00:05:44;14.60;99.90
13052;DHT22;6592;47.484;9.726;2022-09-01T00:08:18;14.60;99.90
13052;DHT22;6592;47.484;9.726;2022-09-01T00:10:47;14.60;99.90
13052;DHT22;6592;47.484;9.726;2022-09-01T00:13:16;14.60;99.90
13052;DHT22;6592;47.484;9.726;2022-09-01T00:15:44;14.60;99.90
13052;DHT22;6592;47.484;9.726;2022-09-01T00:18:13;14.60;99.90
13052;DHT22;6592;47.484;9.726;2022-09-01T00:20:41;14.60;99.90
13052;DHT22;6592;47.484;9.726;2022-09-01T00:23:10;14.60;99.90
13052;DHT22;6592;47.484;9.726;2022-09-01T00:25:40;14.60;99.90
13052;DHT22;6592;47.484;9.726;2022-09-01T00:28:08;14.60;99.90
13052;DHT22;6592;47.484;9.726;2022-09-01T00:30:37;14.60;99.90
13052;DHT22;6592;47.484;9.726;2022-09-01T00:33:06;14.60;99.90
13052;DHT22;6592;47.484;9.726;2022-09-01T00:35:34;14.60;99.90
13052;DHT22;6592;47.484;9.726;2022-09-01T00:38:03;14.50;99.90
13052;DHT22;6592;47.484;9.726;2022-09-01T00:40:32;14.50;99.90
13052;DHT22;6592;47.484;9.726;2022-09-01T00:43:11;14.50;99.90
13052;DHT22;6592;47.484;9.726;2022-09-01T00:45:40;14.50;99.90
13052;DHT22;6592;47.484;9.726;2022-09-01T00:48:09;14.50;99.90
13052;DHT22;6592;47.484;9.726;2022-09-01T00:50:39;14.50;99.90
13052;DHT22;6592;47.484;9.726;2022-09-01T00:53:13;14.50;99.90
13052;DHT22;6592;47.484;9.726;2022-09-01T00:55:42;14.60;99.90
13052;DHT22;6592;47.484;9.726;2022-09-01T00:58:12;14.60;99.90
13052;DHT22;6592;47.484;9.726;2022-09-01T01:00:48;14.60;99.90
13052;DHT22;6592;47.484;9.726;2022-09-01T01:03:19;14.60;99.90
13052;DHT22;6592;47.484;9.726;2022-09-01T01:05:50;14.60;99.90
13052;DHT22;6592;47.484;9.726;2022-09-01T01:08:22;14.60;99.90
13052;DHT22;6592;47.484;9.726;2022-09-01T01:11:00;14.60;99.90
13052;DHT22;6592;47.484;9.726;2022-09-01T01:13:31;14.60;99.90
13052;DHT22;6592;47.484;9.726;2022-09-01T01:16:02;14.50;99.90
13052;DHT22;6592;47.484;9.726;2022-09-01T01:18:34;14.50;99.90
13052;DHT22;6592;47.484;9.726;2022-09-01T01:21:06;14.50;99.90
13052;DHT22;6592;47.484;9.726;2022-09-01T01:23:58;14.50;99.90
13052;DHT22;6592;47.484;9.726;2022-09-01T01:26:31;14.60;99.90
13052;DHT22;6592;47.484;9.726;2022-09-01T01:28:59;14.60;99.90
13052;DHT22;6592;47.484;9.726;2022-09-01T01:31:29;14.60;99.90
13052;DHT22;6592;47.484;9.726;2022-09-01T01:33:58;14.60;99.90
13052;DHT22;6592;47.484;9.726;2022-09-01T01:36:30;14.60;99.90
13052;DHT22;6592;47.484;9.726;2022-09-01T01:39:02;14.60;99.90
13052;DHT22;6592;47.484;9.726;2022-09-01T01:41:33;14.60;99.90
13052;DHT22;6592;47.484;9.726;2022-09-01T01:44:03;14.60;99.90
13052;DHT22;6592;47.484;9.726;2022-09-01T01:46:33;14.60;99.90
13052;DHT22;6592;47.484;9.726;2022-09-01T01:49:02;14.70;99.90
13052;DHT22;6592;47.484;9.726;2022-09-01T01:51:30;14.60;99.90
13052;DHT22;6592;47.484;9.726;2022-09-01T01:54:00;14.70;99.90
13052;DHT22;6592;47.484;9.726;2022-09-01T01:56:34;14.70;99.90
13052;DHT22;6592;47.484;9.726;2022-09-01T01:59:06;14.70;99.90
13052;DHT22;6592;47.484;9.726;2022-09-01T02:01:36;14.70;99.90
13052;DHT22;6592;47.484;9.726;2022-09-01T02:04:05;14.90;99.90
13052;DHT22;6592;47.484;9.726;2022-09-01T02:06:34;14.80;99.90
13052;DHT22;6592;47.484;9.726;2022-09-01T02:09:03;14.80;99.90
13052;DHT22;6592;47.484;9.726;2022-09-01T02:11:33;14.80;99.90
13052;DHT22;6592;47.484;9.726;2022-09-01T02:14:04;14.90;99.90
13052;DHT22;6592;47.484;9.726;2022-09-01T02:16:34;14.90;99.90
13052;DHT22;6592;47.484;9.726;2022-09-01T02:19:05;15.00;99.90
13052;DHT22;6592;47.484;9.726;2022-09-01T02:21:34;15.00;99.90
13052;DHT22;6592;47.484;9.726;2022-09-01T02:24:05;15.10;99.90
13052;DHT22;6592;47.484;9.726;2022-09-01T02:26:38;15.10;99.90
13052;DHT22;6592;47.484;9.726;2022-09-01T02:29:12;15.10;99.90
13052;DHT22;6592;47.484;9.726;2022-09-01T02:31:46;15.10;99.90
13052;DHT22;6592;47.484;9.726;2022-09-01T02:34:15;15.10;99.90
13052;DHT22;6592;47.484;9.726;2022-09-01T02:36:46;15.00;99.90
13052;DHT22;6592;47.484;9.726;2022-09-01T02:39:15;14.90;99.90
13052;DHT22;6592;47.484;9.726;2022-09-01T02:41:46;14.90;99.90
13052;DHT22;6592;47.484;9.726;2022-09-01T02:44:15;14.90;99.90
13052;DHT22;6592;47.484;9.726;2022-09-01T02:46:49;14.80;99.90
13052;DHT22;6592;47.484;9.726;2022-09-01T02:49:20;14.80;99.90
13052;DHT22;6592;47.484;9.726;2022-09-01T02:51:51;14.80;99.90
13052;DHT22;6592;47.484;9.726;2022-09-01T02:54:21;14.80;99.90
13052;DHT22;6592;47.484;9.726;2022-09-01T02:56:52;14.80;99.90
13052;DHT22;6592;47.484;9.726;2022-09-01T02:59:22;14.70;99.90
13052;DHT22;6592;47.484;9.726;2022-09-01T03:01:52;14.70;99.90
13052;DHT22;6592;47.484;9.726;2022-09-01T03:04:23;14.70;99.90
13052;DHT22;6592;47.484;9.726;2022-09-01T03:06:53;14.70;99.90
13052;DHT22;6592;47.484;9.726;2022-09-01T03:09:25;14.60;99.90
13052;DHT22;6592;47.484;9.726;2022-09-01T03:11:55;14.60;99.90
13052;DHT22;6592;47.484;9.726;2022-09-01T03:14:24;14.50;99.90
13052;DHT22;6592;47.484;9.726;2022-09-01T03:16:52;14.50;99.90
13052;DHT22;6592;47.484;9.726;2022-09-01T03:19:21;14.40;99.90
13052;DHT22;6592;47.484;9.726;2022-09-01T03:21:49;14.40;99.90
13052;DHT22;6592;47.484;9.726;2022-09-01T03:24:18;14.40;99.90
13052;DHT22;6592;47.484;9.726;2022-09-01T03:26:49;14.40;99.90
13052;DHT22;6592;47.484;9.726;2022-09-01T03:29:19;14.50;99.90
13052;DHT22;6592;47.484;9.726;2022-09-01T03:31:48;14.50;99.90
13052;DHT22;6592;47.484;9.726;2022-09-01T03:34:16;14.50;99.90
13052;DHT22;6592;47.484;9.726;2022-09-01T03:36:49;14.50;99.90
13052;DHT22;6592;47.484;9.726;2022-09-01T03:39:18;14.50;99.90
13052;DHT22;6592;47.484;9.726;2022-09-01T03:41:47;14.50;99.90
13052;DHT22;6592;47.484;9.726;2022-09-01T03:44:15;14.60;99.90
13052;DHT22;6592;47.484;9.726;2022-09-01T03:46:45;14.60;99.90
13052;DHT22;6592;47.484;9.726;2022-09-01T03:49:13;14.70;99.90
13052;DHT22;6592;47.484;9.726;2022-09-01T03:51:50;14.70;99.90
13052;DHT22;6592;47.484;9.726;2022-09-01T03:54:19;14.70;99.90
13052;DHT22;6592;47.484;9.726;2022-09-01T03:56:50;14.70;99.90
13052;DHT22;6592;47.484;9.726;2022-09-01T03:59:22;14.80;99.90
13052;DHT22;6592;47.484;9.726;2022-09-01T04:01:53;14.80;99.90
13052;DHT22;6592;47.484;9.726;2022-09-01T04:04:22;14.80;99.90
13052;DHT22;6592;47.484;9.726;2022-09-01T04:06:51;14.90;99.90
13052;DHT22;6592;47.484;9.726;2022-09-01T04:09:20;14.90;99.90
13052;DHT22;6592;47.484;9.726;2022-09-01T04:11:48;14.90;99.90
13052;DHT22;6592;47.484;9.726;2022-09-01T04:14:17;14.90;99.90
13052;DHT22;6592;47.484;9.726;2022-09-01T04:16:46;15.00;99.90
13052;DHT22;6592;47.484;9.726;2022-09-01T04:19:36;15.00;99.90
13052;DHT22;6592;47.484;9.726;2022-09-01T04:22:05;15.00;99.90
13052;DHT22;6592;47.484;9.726;2022-09-01T04:24:40;15.00;99.90
13052;DHT22;6592;47.484;9.726;2022-09-01T04:27:13;15.00;99.90
13052;DHT22;6592;47.484;9.726;2022-09-01T04:29:44;15.10;99.90
13052;DHT22;6592;47.484;9.726;2022-09-01T04:32:13;15.10;99.90
13052;DHT22;6592;47.484;9.726;2022-09-01T04:34:44;15.10;99.90
13052;DHT22;6592;47.484;9.726;2022-09-01T04:37:14;15.10;99.90
13052;DHT22;6592;47.484;9.726;2022-09-01T04:39:48;15.10;99.90
13052;DHT22;6592;47.484;9.726;2022-09-01T04:42:24;15.10;99.90
13052;DHT22;6592;47.484;9.726;2022-09-01T04:44:54;15.10;99.90
13052;DHT22;6592;47.484;9.726;2022-09-01T04:47:25;15.10;99.90
13052;DHT22;6592;47.484;9.726;2022-09-01T04:50:04;15.10;99.90
13052;DHT22;6592;47.484;9.726;2022-09-01T04:52:41;15.20;99.90
13052;DHT22;6592;47.484;9.726;2022-09-01T04:55:10;15.20;99.90
13052;DHT22;6592;47.484;9.726;2022-09-01T04:57:45;15.20;99.90
13052;DHT22;6592;47.484;9.726;2022-09-01T05:00:17;15.30;99.90
13052;DHT22;6592;47.484;9.726;2022-09-01T05:02:49;15.20;99.90
13052;DHT22;6592;47.484;9.726;2022-09-01T05:05:22;15.20;99.90
13052;DHT22;6592;47.484;9.726;2022-09-01T05:07:50;15.20;99.90
13052;DHT22;6592;47.484;9.726;2022-09-01T05:10:22;15.10;99.90
13052;DHT22;6592;47.484;9.726;2022-09-01T05:12:56;15.20;99.90
13052;DHT22;6592;47.484;9.726;2022-09-01T05:15:24;15.30;99.90
13052;DHT22;6592;47.484;9.726;2022-09-01T05:17:52;15.20;99.90
13052;DHT22;6592;47.484;9.726;2022-09-01T05:20:23;15.20;99.90
13052;DHT22;6592;47.484;9.726;2022-09-01T05:22:56;15.30;99.90
13052;DHT22;6592;47.484;9.726;2022-09-01T05:25:24;15.30;99.90
13052;DHT22;6592;47.484;9.726;2022-09-01T05:27:53;15.20;99.90
13052;DHT22;6592;47.484;9.726;2022-09-01T05:30:22;15.20;99.90
13052;DHT22;6592;47.484;9.726;2022-09-01T05:32:54;15.20;99.90
13052;DHT22;6592;47.484;9.726;2022-09-01T05:35:24;15.20;99.90
13052;DHT22;6592;47.484;9.726;2022-09-01T05:37:58;15.20;99.90
13052;DHT22;6592;47.484;9.726;2022-09-01T05:40:27;15.30;99.90
13052;DHT22;6592;47.484;9.726;2022-09-01T05:42:55;15.30;99.90
13052;DHT22;6592;47.484;9.726;2022-09-01T05:45:23;15.20;99.90
13052;DHT22;6592;47.484;9.726;2022-09-01T05:47:52;15.20;99.90
13052;DHT22;6592;47.484;9.726;2022-09-01T05:50:20;15.30;99.90
13052;DHT22;6592;47.484;9.726;2022-09-01T05:52:50;15.30;99.90
13052;DHT22;6592;47.484;9.726;2022-09-01T05:55:19;15.30;99.90
13052;DHT22;6592;47.484;9.726;2022-09-01T05:57:48;15.30;99.90
13052;DHT22;6592;47.484;9.726;2022-09-01T06:00:20;15.40;99.90
13052;DHT22;6592;47.484;9.726;2022-09-01T06:02:49;15.40;99.90
13052;DHT22;6592;47.484;9.726;2022-09-01T06:05:19;15.40;99.90
13052;DHT22;6592;47.484;9.726;2022-09-01T06:07:49;15.50;99.90
13052;DHT22;6592;47.484;9.726;2022-09-01T06:10:18;15.40;99.90
13052;DHT22;6592;47.484;9.726;2022-09-01T06:12:46;15.30;99.90
13052;DHT22;6592;47.484;9.726;2022-09-01T06:15:19;15.40;99.90
13052;DHT22;6592;47.484;9.726;2022-09-01T06:17:48;15.40;99.90
13052;DHT22;6592;47.484;9.726;2022-09-01T06:20:17;15.50;99.90
13052;DHT22;6592;47.484;9.726;2022-09-01T06:22:45;15.60;99.90
13052;DHT22;6592;47.484;9.726;2022-09-01T06:25:15;15.60;99.90
13052;DHT22;6592;47.484;9.726;2022-09-01T06:27:45;15.70;99.90
13052;DHT22;6592;47.484;9.726;2022-09-01T06:30:15;15.70;99.90
13052;DHT22;6592;47.484;9.726;2022-09-01T06:32:50;15.80;99.90
13052;DHT22;6592;47.484;9.726;2022-09-01T06:35:19;15.90;99.90
13052;DHT22;6592;47.484;9.726;2022-09-01T06:37:48;15.90;99.90
13052;DHT22;6592;47.484;9.726;2022-09-01T06:40:17;16.00;99.90
13052;DHT22;6592;47.484;9.726;2022-09-01T06:42:47;16.00;99.90
13052;DHT22;6592;47.484;9.726;2022-09-01T06:45:18;16.10;99.90
13052;DHT22;6592;47.484;9.726;2022-09-01T06:47:48;16.20;99.90
13052;DHT22;6592;47.484;9.726;2022-09-01T06:50:26;16.20;99.90
13052;DHT22;6592;47.484;9.726;2022-09-01T06:53:16;16.30;99.90
13052;DHT22;6592;47.484;9.726;2022-09-01T06:56:06;16.40;99.90
13052;DHT22;6592;47.484;9.726;2022-09-01T06:58:39;16.60;99.90
13052;DHT22;6592;47.484;9.726;2022-09-01T07:01:10;16.70;99.90
13052;DHT22;6592;47.484;9.726;2022-09-01T07:03:41;16.80;99.90
13052;DHT22;6592;47.484;9.726;2022-09-01T07:06:10;16.90;99.90
13052;DHT22;6592;47.484;9.726;2022-09-01T07:09:01;17.00;99.90
13052;DHT22;6592;47.484;9.726;2022-09-01T07:11:48;17.00;99.90
13052;DHT22;6592;47.484;9.726;2022-09-01T07:14:36;17.00;99.90
13052;DHT22;6592;47.484;9.726;2022-09-01T07:17:24;17.20;99.90
13052;DHT22;6592;47.484;9.726;2022-09-01T07:19:55;17.40;99.90
13052;DHT22;6592;47.484;9.726;2022-09-01T07:22:44;17.70;99.90
13052;DHT22;6592;47.484;9.726;2022-09-01T07:25:33;17.90;99.90
13052;DHT22;6592;47.484;9.726;2022-09-01T07:28:26;18.30;99.90
13052;DHT22;6592;47.484;9.726;2022-09-01T07:31:06;18.60;99.90
13052;DHT22;6592;47.484;9.726;2022-09-01T07:33:57;19.00;99.90
13052;DHT22;6592;47.484;9.726;2022-09-01T07:36:47;19.40;99.90
13052;DHT22;6592;47.484;9.726;2022-09-01T07:39:36;19.60;99.90
13052;DHT22;6592;47.484;9.726;2022-09-01T07:42:25;19.80;99.90
13052;DHT22;6592;47.484;9.726;2022-09-01T07:45:16;19.90;99.90
13052;DHT22;6592;47.484;9.726;2022-09-01T07:47:54;20.10;99.90
13052;DHT22;6592;47.484;9.726;2022-09-01T07:50:23;20.20;99.90
13052;DHT22;6592;47.484;9.726;2022-09-01T07:53:12;20.10;99.90
13052;DHT22;6592;47.484;9.726;2022-09-01T07:55:44;20.10;99.90
13052;DHT22;6592;47.484;9.726;2022-09-01T07:58:17;20.10;99.90
13052;DHT22;6592;47.484;9.726;2022-09-01T08:00:47;20.20;99.90
13052;DHT22;6592;47.484;9.726;2022-09-01T08:03:17;20.40;99.90
13052;DHT22;6592;47.484;9.726;2022-09-01T08:05:46;20.60;99.90
13052;DHT22;6592;47.484;9.726;2022-09-01T08:08:17;20.80;99.90
13052;DHT22;6592;47.484;9.726;2022-09-01T08:10:48;21.10;99.90
13052;DHT22;6592;47.484;9.726;2022-09-01T08:13:17;21.30;99.90
13052;DHT22;6592;47.484;9.726;2022-09-01T08:15:49;21.50;99.90
13052;DHT22;6592;47.484;9.726;2022-09-01T08:18:35;21.70;99.90
13052;DHT22;6592;47.484;9.726;2022-09-01T08:21:19;21.90;99.90
13052;DHT22;6592;47.484;9.726;2022-09-01T08:23:50;22.00;99.90
13052;DHT22;6592;47.484;9.726;2022-09-01T08:26:20;22.10;99.90
13052;DHT22;6592;47.484;9.726;2022-09-01T08:28:49;22.10;99.90
13052;DHT22;6592;47.484;9.726;2022-09-01T08:31:23;22.10;99.90
13052;DHT22;6592;47.484;9.726;2022-09-01T08:33:57;22.10;99.90
13052;DHT22;6592;47.484;9.726;2022-09-01T08:36:26;22.30;99.90
13052;DHT22;6592;47.484;9.726;2022-09-01T08:38:54;22.30;99.90
13052;DHT22;6592;47.484;9.726;2022-09-01T08:41:31;22.40;99.90
13052;DHT22;6592;47.484;9.726;2022-09-01T08:44:07;22.40;99.90
13052;DHT22;6592;47.484;9.726;2022-09-01T08:46:41;22.50;99.90
13052;DHT22;6592;47.484;9.726;2022-09-01T08:49:14;22.50;99.90
13052;DHT22;6592;47.484;9.726;2022-09-01T08:51:57;22.70;99.90
13052;DHT22;6592;47.484;9.726;2022-09-01T08:54:33;22.60;99.90
13052;DHT22;6592;47.484;9.726;2022-09-01T08:57:06;22.70;99.90
13052;DHT22;6592;47.484;9.726;2022-09-01T08:59:35;22.70;99.90
13052;DHT22;6592;47.484;9.726;2022-09-01T09:02:20;22.90;99.90
13052;DHT22;6592;47.484;9.726;2022-09-01T09:04:58;23.00;99.90
13052;DHT22;6592;47.484;9.726;2022-09-01T09:07:49;23.00;99.90
13052;DHT22;6592;47.484;9.726;2022-09-01T09:10:38;23.00;99.90
13052;DHT22;6592;47.484;9.726;2022-09-01T09:13:20;23.60;99.90
13052;DHT22;6592;47.484;9.726;2022-09-01T09:15:53;24.60;99.90
13052;DHT22;6592;47.484;9.726;2022-09-01T09:18:43;25.30;99.90
13052;DHT22;6592;47.484;9.726;2022-09-01T09:21:26;25.90;99.90
13052;DHT22;6592;47.484;9.726;2022-09-01T09:24:01;26.30;99.90
13052;DHT22;6592;47.484;9.726;2022-09-01T09:26:33;26.60;99.90
13052;DHT22;6592;47.484;9.726;2022-09-01T09:29:09;26.90;99.90
13052;DHT22;6592;47.484;9.726;2022-09-01T09:31:39;27.00;99.90
13052;DHT22;6592;47.484;9.726;2022-09-01T09:34:28;27.20;99.90
13052;DHT22;6592;47.484;9.726;2022-09-01T09:37:01;27.30;99.90
13052;DHT22;6592;47.484;9.726;2022-09-01T09:39:42;27.40;99.90
13052;DHT22;6592;47.484;9.726;2022-09-01T09:42:13;27.50;99.90
13052;DHT22;6592;47.484;9.726;2022-09-01T09:44:43;27.70;99.90
13052;DHT22;6592;47.484;9.726;2022-09-01T09:47:33;27.70;99.90
13052;DHT22;6592;47.484;9.726;2022-09-01T09:50:18;27.60;99.90
13052;DHT22;6592;47.484;9.726;2022-09-01T09:52:47;27.70;99.90
13052;DHT22;6592;47.484;9.726;2022-09-01T09:55:23;28.20;99.90
13052;DHT22;6592;47.484;9.726;2022-09-01T09:57:54;29.20;99.90
13052;DHT22;6592;47.484;9.726;2022-09-01T10:00:25;29.60;99.90
13052;DHT22;6592;47.484;9.726;2022-09-01T10:02:57;29.70;99.90
13052;DHT22;6592;47.484;9.726;2022-09-01T10:05:41;29.60;99.90
13052;DHT22;6592;47.484;9.726;2022-09-01T10:08:11;29.50;99.90
13052;DHT22;6592;47.484;9.726;2022-09-01T10:10:43;29.60;99.90
13052;DHT22;6592;47.484;9.726;2022-09-01T10:13:25;29.20;99.90
13052;DHT22;6592;47.484;9.726;2022-09-01T10:16:00;29.10;99.90
13052;DHT22;6592;47.484;9.726;2022-09-01T10:18:35;29.20;99.90
13052;DHT22;6592;47.484;9.726;2022-09-01T10:21:11;29.30;99.90
13052;DHT22;6592;47.484;9.726;2022-09-01T10:23:41;29.60;99.90
13052;DHT22;6592;47.484;9.726;2022-09-01T10:26:14;29.70;99.90
13052;DHT22;6592;47.484;9.726;2022-09-01T10:28:47;29.60;99.90
13052;DHT22;6592;47.484;9.726;2022-09-01T10:31:19;29.70;99.90
13052;DHT22;6592;47.484;9.726;2022-09-01T10:33:49;30.40;99.10
13052;DHT22;6592;47.484;9.726;2022-09-01T10:36:19;30.70;99.10
13052;DHT22;6592;47.484;9.726;2022-09-01T10:38:50;30.80;98.70
13052;DHT22;6592;47.484;9.726;2022-09-01T10:41:48;30.80;98.70
13052;DHT22;6592;47.484;9.726;2022-09-01T10:44:27;29.90;96.80
13052;DHT22;6592;47.484;9.726;2022-09-01T10:47:01;30.10;97.90
13052;DHT22;6592;47.484;9.726;2022-09-01T10:52:55;30.50;96.40
13052;DHT22;6592;47.484;9.726;2022-09-01T10:55:46;30.70;96.60
13052;DHT22;6592;47.484;9.726;2022-09-01T10:58:32;30.90;94.40
13052;DHT22;6592;47.484;9.726;2022-09-01T11:05:11;34.00;90.20
13052;DHT22;6592;47.484;9.726;2022-09-01T11:07:40;34.90;80.50
13052;DHT22;6592;47.484;9.726;2022-09-01T11:10:39;35.10;85.20
13052;DHT22;6592;47.484;9.726;2022-09-01T11:13:35;35.40;82.00
13052;DHT22;6592;47.484;9.726;2022-09-01T11:16:29;35.30;77.10
13052;DHT22;6592;47.484;9.726;2022-09-01T11:22:22;35.30;78.70
13052;DHT22;6592;47.484;9.726;2022-09-01T11:30:55;37.30;74.00
13052;DHT22;6592;47.484;9.726;2022-09-01T11:33:33;37.70;74.00
13052;DHT22;6592;47.484;9.726;2022-09-01T11:36:11;38.40;68.70
13052;DHT22;6592;47.484;9.726;2022-09-01T11:38:46;38.80;66.10
13052;DHT22;6592;47.484;9.726;2022-09-01T11:41:21;38.70;63.50
13052;DHT22;6592;47.484;9.726;2022-09-01T11:43:54;38.40;63.80
13052;DHT22;6592;47.484;9.726;2022-09-01T11:46:27;37.90;63.00
13052;DHT22;6592;47.484;9.726;2022-09-01T11:48:56;38.10;63.70
13052;DHT22;6592;47.484;9.726;2022-09-01T11:51:25;38.40;65.40
13052;DHT22;6592;47.484;9.726;2022-09-01T11:53:58;38.30;60.40
13052;DHT22;6592;47.484;9.726;2022-09-01T11:56:27;38.40;63.20
13052;DHT22;6592;47.484;9.726;2022-09-01T11:58:57;38.10;58.50
13052;DHT22;6592;47.484;9.726;2022-09-01T12:01:31;38.00;59.30
13052;DHT22;6592;47.484;9.726;2022-09-01T12:04:18;37.80;62.60
13052;DHT22;6592;47.484;9.726;2022-09-01T12:06:54;37.70;57.30
13052;DHT22;6592;47.484;9.726;2022-09-01T12:09:31;37.70;61.50
13052;DHT22;6592;47.484;9.726;2022-09-01T12:12:00;37.50;60.00
13052;DHT22;6592;47.484;9.726;2022-09-01T12:14:30;37.10;59.20
13052;DHT22;6592;47.484;9.726;2022-09-01T12:17:19;36.80;62.30
13052;DHT22;6592;47.484;9.726;2022-09-01T12:19:48;36.90;62.90
13052;DHT22;6592;47.484;9.726;2022-09-01T12:22:18;37.10;60.60
13052;DHT22;6592;47.484;9.726;2022-09-01T12:24:49;37.20;61.70
13052;DHT22;6592;47.484;9.726;2022-09-01T12:27:17;36.90;62.70
13052;DHT22;6592;47.484;9.726;2022-09-01T12:29:48;36.50;62.40
13052;DHT22;6592;47.484;9.726;2022-09-01T12:32:17;35.80;64.10
13052;DHT22;6592;47.484;9.726;2022-09-01T12:34:58;35.50;66.10
13052;DHT22;6592;47.484;9.726;2022-09-01T12:37:28;35.50;65.90
13052;DHT22;6592;47.484;9.726;2022-09-01T12:39:57;35.90;67.10
13052;DHT22;6592;47.484;9.726;2022-09-01T12:42:27;36.30;64.50
13052;DHT22;6592;47.484;9.726;2022-09-01T12:45:09;36.70;64.60
13052;DHT22;6592;47.484;9.726;2022-09-01T12:47:47;36.90;61.60
13052;DHT22;6592;47.484;9.726;2022-09-01T12:50:39;37.00;62.00
13052;DHT22;6592;47.484;9.726;2022-09-01T12:53:21;37.10;61.60
13052;DHT22;6592;47.484;9.726;2022-09-01T12:55:56;36.40;62.60
13052;DHT22;6592;47.484;9.726;2022-09-01T12:58:27;35.60;62.20
13052;DHT22;6592;47.484;9.726;2022-09-01T13:00:59;35.10;64.70
13052;DHT22;6592;47.484;9.726;2022-09-01T13:03:29;34.70;66.00
13052;DHT22;6592;47.484;9.726;2022-09-01T13:06:01;34.40;67.50
13052;DHT22;6592;47.484;9.726;2022-09-01T13:08:32;34.10;68.80
13052;DHT22;6592;47.484;9.726;2022-09-01T13:11:03;34.00;69.90
13052;DHT22;6592;47.484;9.726;2022-09-01T13:13:32;34.00;68.40
13052;DHT22;6592;47.484;9.726;2022-09-01T13:16:03;33.60;67.80
13052;DHT22;6592;47.484;9.726;2022-09-01T13:18:36;33.50;70.00
13052;DHT22;6592;47.484;9.726;2022-09-01T13:21:25;33.50;71.90
13052;DHT22;6592;47.484;9.726;2022-09-01T13:23:55;33.60;71.00
13052;DHT22;6592;47.484;9.726;2022-09-01T13:26:23;34.00;69.70
13052;DHT22;6592;47.484;9.726;2022-09-01T13:28:52;34.40;69.10
13052;DHT22;6592;47.484;9.726;2022-09-01T13:31:21;34.80;69.60
13052;DHT22;6592;47.484;9.726;2022-09-01T13:33:58;35.20;66.10
13052;DHT22;6592;47.484;9.726;2022-09-01T13:36:46;35.30;63.80
13052;DHT22;6592;47.484;9.726;2022-09-01T13:39:19;34.80;65.20
13052;DHT22;6592;47.484;9.726;2022-09-01T13:41:49;34.40;66.80
13052;DHT22;6592;47.484;9.726;2022-09-01T13:44:17;34.00;67.90
13052;DHT22;6592;47.484;9.726;2022-09-01T13:46:47;34.00;69.10
13052;DHT22;6592;47.484;9.726;2022-09-01T13:49:35;34.10;67.10
13052;DHT22;6592;47.484;9.726;2022-09-01T13:52:23;34.40;67.60
13052;DHT22;6592;47.484;9.726;2022-09-01T13:54:51;34.80;66.70
13052;DHT22;6592;47.484;9.726;2022-09-01T13:57:20;35.30;65.50
13052;DHT22;6592;47.484;9.726;2022-09-01T13:59:48;35.80;63.40
13052;DHT22;6592;47.484;9.726;2022-09-01T14:02:18;36.30;64.00
13052;DHT22;6592;47.484;9.726;2022-09-01T14:04:46;36.50;63.60
13052;DHT22;6592;47.484;9.726;2022-09-01T14:07:15;36.60;60.80
13052;DHT22;6592;47.484;9.726;2022-09-01T14:09:45;36.60;59.70
13052;DHT22;6592;47.484;9.726;2022-09-01T14:12:13;36.60;59.90
13052;DHT22;6592;47.484;9.726;2022-09-01T14:14:41;36.80;59.50
13052;DHT22;6592;47.484;9.726;2022-09-01T14:17:31;37.20;60.30
13052;DHT22;6592;47.484;9.726;2022-09-01T14:19:59;37.40;59.30
13052;DHT22;6592;47.484;9.726;2022-09-01T14:22:28;37.40;57.10
13052;DHT22;6592;47.484;9.726;2022-09-01T14:25:01;36.70;57.60
13052;DHT22;6592;47.484;9.726;2022-09-01T14:27:29;36.10;57.40
13052;DHT22;6592;47.484;9.726;2022-09-01T14:29:57;35.90;57.30
13052;DHT22;6592;47.484;9.726;2022-09-01T14:32:26;35.50;59.10
13052;DHT22;6592;47.484;9.726;2022-09-01T14:34:56;35.00;60.30
13052;DHT22;6592;47.484;9.726;2022-09-01T14:37:25;34.50;58.80
13052;DHT22;6592;47.484;9.726;2022-09-01T14:39:55;34.10;59.20
13052;DHT22;6592;47.484;9.726;2022-09-01T14:42:24;33.70;60.50
13052;DHT22;6592;47.484;9.726;2022-09-01T14:44:55;33.70;62.00
13052;DHT22;6592;47.484;9.726;2022-09-01T14:47:23;33.50;61.90
13052;DHT22;6592;47.484;9.726;2022-09-01T14:49:52;33.00;61.60
13052;DHT22;6592;47.484;9.726;2022-09-01T14:52:22;31.60;65.20
13052;DHT22;6592;47.484;9.726;2022-09-01T14:54:50;31.20;67.80
13052;DHT22;6592;47.484;9.726;2022-09-01T14:57:19;31.20;68.90
13052;DHT22;6592;47.484;9.726;2022-09-01T15:00:05;30.70;68.50
13052;DHT22;6592;47.484;9.726;2022-09-01T15:02:36;30.10;69.20
13052;DHT22;6592;47.484;9.726;2022-09-01T15:05:05;29.70;70.70
13052;DHT22;6592;47.484;9.726;2022-09-01T15:07:36;29.40;71.50
13052;DHT22;6592;47.484;9.726;2022-09-01T15:10:06;28.90;69.10
13052;DHT22;6592;47.484;9.726;2022-09-01T15:12:42;28.40;70.40
13052;DHT22;6592;47.484;9.726;2022-09-01T15:15:11;28.20;72.30
13052;DHT22;6592;47.484;9.726;2022-09-01T15:17:39;28.10;73.00
13052;DHT22;6592;47.484;9.726;2022-09-01T15:20:12;27.90;74.10
13052;DHT22;6592;47.484;9.726;2022-09-01T15:23:00;27.80;75.30
13052;DHT22;6592;47.484;9.726;2022-09-01T15:25:29;27.80;75.10
13052;DHT22;6592;47.484;9.726;2022-09-01T15:27:57;27.60;74.90
13052;DHT22;6592;47.484;9.726;2022-09-01T15:30:25;27.40;74.40
13052;DHT22;6592;47.484;9.726;2022-09-01T15:32:54;27.20;77.70
13052;DHT22;6592;47.484;9.726;2022-09-01T15:35:22;26.80;75.40
13052;DHT22;6592;47.484;9.726;2022-09-01T15:37:51;26.50;77.10
13052;DHT22;6592;47.484;9.726;2022-09-01T15:40:22;26.20;78.40
13052;DHT22;6592;47.484;9.726;2022-09-01T15:42:50;26.20;79.90
13052;DHT22;6592;47.484;9.726;2022-09-01T15:45:20;26.10;79.70
13052;DHT22;6592;47.484;9.726;2022-09-01T15:47:49;26.20;80.60
13052;DHT22;6592;47.484;9.726;2022-09-01T15:50:22;26.20;82.40
13052;DHT22;6592;47.484;9.726;2022-09-01T15:52:56;26.20;81.60
13052;DHT22;6592;47.484;9.726;2022-09-01T15:55:28;26.20;82.00
13052;DHT22;6592;47.484;9.726;2022-09-01T15:57:57;26.00;81.30
13052;DHT22;6592;47.484;9.726;2022-09-01T16:00:28;25.90;79.60
13052;DHT22;6592;47.484;9.726;2022-09-01T16:02:56;25.60;81.30
13052;DHT22;6592;47.484;9.726;2022-09-01T16:05:28;25.50;81.50
13052;DHT22;6592;47.484;9.726;2022-09-01T16:07:57;25.30;81.60
13052;DHT22;6592;47.484;9.726;2022-09-01T16:10:29;25.20;83.00
13052;DHT22;6592;47.484;9.726;2022-09-01T16:13:03;25.10;84.40
13052;DHT22;6592;47.484;9.726;2022-09-01T16:15:31;25.00;83.50
13052;DHT22;6592;47.484;9.726;2022-09-01T16:18:25;24.70;83.40
13052;DHT22;6592;47.484;9.726;2022-09-01T16:21:00;24.60;83.50
13052;DHT22;6592;47.484;9.726;2022-09-01T16:23:37;24.50;85.00
13052;DHT22;6592;47.484;9.726;2022-09-01T16:26:08;24.40;85.80
13052;DHT22;6592;47.484;9.726;2022-09-01T16:28:38;24.30;85.80
13052;DHT22;6592;47.484;9.726;2022-09-01T16:31:09;24.30;86.80
13052;DHT22;6592;47.484;9.726;2022-09-01T16:33:49;24.10;87.90
13052;DHT22;6592;47.484;9.726;2022-09-01T16:36:28;24.10;87.40
13052;DHT22;6592;47.484;9.726;2022-09-01T16:39:04;24.00;86.60